Terminal Aerodrome Forecast
Issued by NWS Charleston, WV

Current Version | Previous Version | Text Only | Print | Product List | Glossary Off
Versions: 1 2 3 4 5 6 7 8 9 10 11 12 13 14 15 16 17 18 19 20 21

000
FTUS41 KRLX 091500 AAA
TAFPKB
TAF AMD
KPKB 091552Z 0916/1012 24006KT P6SM SCT045
     FM100800 00000KT 3SM BR FEW040
     FM101000 00000KT 2SM BR FEW030
      AMD NOT SKED=

USA.gov is the U.S. government's official web portal to all federal, state and local government web resources and services.